Time;durP1;ratioP1;P1;durP2;ratioP2;P2;SDS_P1;SDS_P2;PMS_P1;PMS_P2;Temp;Humidity;BMP_temperature;BMP_pressure;BME280_temperature;BME280_humidity;BME280_pressure;Samples;Min_cycle;Max_cycle;Signal;HPM_P1;HPM_P2
2021/04/05 00:00:33;;;;;;;11.48;8.13;;;;;;;3.02;62.63;96980.67;1745187;81;21542;-87
2021/04/05 00:03:11;;;;;;;12.28;7.37;;;;;;;3.00;62.67;96980.38;1739315;81;21122;-87
2021/04/05 00:06:02;;;;;;;11.05;6.17;;;;;;;2.96;62.86;96979.25;1734340;82;21265;-88
2021/04/05 00:08:46;;;;;;;10.13;6.45;;;;;;;2.93;62.98;96979.40;1663748;85;21169;-87
2021/04/05 00:11:44;;;;;;;10.32;5.50;;;;;;;2.99;63.05;96979.55;1839244;77;25621;-89
2021/04/05 00:14:34;;;;;;;8.73;5.12;;;;;;;2.94;63.07;96977.18;1727156;82;21265;-90
2021/04/05 00:17:36;;;;;;;7.60;5.62;;;;;;;2.96;63.21;96979.70;1755479;82;21132;-89
2021/04/05 00:20:56;;;;;;;6.83;5.33;;;;;;;2.93;62.98;96983.30;1755085;82;21157;-89
2021/04/05 00:23:53;;;;;;;9.68;6.22;;;;;;;2.92;62.79;96982.92;1722155;82;21171;-88
2021/04/05 00:27:10;;;;;;;7.33;5.47;;;;;;;2.91;62.65;96981.23;1749469;80;21139;-87
2021/04/05 00:29:51;;;;;;;12.43;6.53;;;;;;;2.88;62.49;96983.16;1772723;80;21168;-87
2021/04/05 00:33:22;;;;;;;11.22;6.40;;;;;;;2.86;62.49;96974.58;1783205;79;21160;-89
2021/04/05 00:36:53;;;;;;;9.63;6.37;;;;;;;2.84;62.47;96974.66;1750646;82;21255;-88
2021/04/05 00:40:19;;;;;;;9.20;5.92;;;;;;;2.81;62.39;96971.77;1753049;80;21128;-88
2021/04/05 00:43:06;;;;;;;8.28;5.87;;;;;;;2.80;62.31;96970.08;1755612;81;21116;-90
2021/04/05 00:46:39;;;;;;;7.60;4.70;;;;;;;2.76;62.17;96966.41;1694558;82;21144;-90
2021/04/05 00:50:04;;;;;;;9.93;5.30;;;;;;;2.64;62.25;96963.50;1750086;80;21174;-89
2021/04/05 00:53:50;;;;;;;9.73;5.28;;;;;;;2.58;62.48;96959.91;1753659;81;21136;-89
2021/04/05 00:57:39;;;;;;;7.17;4.90;;;;;;;2.51;62.35;96957.21;1752022;82;21263;-89
2021/04/05 01:01:24;;;;;;;6.95;5.10;;;;;;;2.46;62.41;96946.20;1707523;84;21108;-89
2021/04/05 01:12:30;;;;;;;8.27;5.23;;;;;;;2.20;62.56;96935.34;1706010;82;21144;-89
2021/04/05 01:16:23;;;;;;;7.42;5.33;;;;;;;2.08;62.98;96930.29;1669709;84;21436;-90
2021/04/05 01:20:17;;;;;;;10.95;6.17;;;;;;;1.95;62.76;96933.91;1753943;80;21152;-90
2021/04/05 01:24:17;;;;;;;9.93;5.20;;;;;;;1.84;63.01;96927.94;1754923;80;21123;-90
2021/04/05 01:27:41;;;;;;;9.55;5.65;;;;;;;1.74;63.14;96918.07;1737230;82;21187;-90
2021/04/05 01:31:19;;;;;;;9.88;5.25;;;;;;;1.67;63.31;96918.81;1700184;84;21367;-88
2021/04/05 01:49:35;;;;;;;;;;;;;;;1.13;64.88;96914.34;1707621;84;21161;-89
2021/04/05 01:53:19;;;;;;;10.78;6.85;;;;;;;1.06;65.55;96912.48;1650560;83;20213;-88
2021/04/05 02:06:52;;;;;;;12.58;6.53;;;;;;;0.88;66.35;96907.64;1795553;75;22413;-87
2021/04/05 02:13:53;;;;;;;14.03;6.60;;;;;;;0.81;66.07;96908.83;1734345;80;21554;-90
2021/04/05 02:17:27;;;;;;;11.57;6.22;;;;;;;0.78;66.41;96905.09;1729869;82;21253;-87
2021/04/05 02:24:43;;;;;;;13.33;5.43;;;;;;;0.74;65.91;96904.83;1722915;83;21135;-89
2021/04/05 02:28:15;;;;;;;9.93;5.30;;;;;;;0.74;65.94;96907.42;1724659;81;21241;-87
2021/04/05 02:36:03;;;;;;;8.50;4.87;;;;;;;0.85;66.10;96903.91;1726706;82;21175;-89
2021/04/05 02:39:40;;;;;;;8.60;5.80;;;;;;;0.93;66.18;96899.21;1681657;84;21274;-89
2021/04/05 02:46:47;;;;;;;7.00;5.40;;;;;;;1.06;66.10;96898.67;1746113;77;21253;-90
2021/04/05 02:50:22;;;;;;;8.78;5.72;;;;;;;1.14;65.89;96902.20;1713124;83;21163;-89
2021/04/05 02:57:34;;;;;;;7.30;5.60;;;;;;;1.20;65.94;96894.15;1687427;83;21146;-90
2021/04/05 03:05:05;;;;;;;8.10;5.35;;;;;;;1.23;66.08;96887.05;1676718;84;21372;-89
2021/04/05 03:08:37;;;;;;;8.83;4.90;;;;;;;1.24;65.70;96887.88;1566543;88;21209;-89
2021/04/05 03:12:25;;;;;;;8.70;4.40;;;;;;;1.20;65.86;96878.09;1590045;89;21415;-89
2021/04/05 03:15:33;;;;;;;7.92;4.72;;;;;;;1.15;65.62;96874.89;1590406;88;21201;-91
2021/04/05 03:18:53;;;;;;;9.45;4.65;;;;;;;1.12;65.45;96876.31;1603386;87;21446;-91
2021/04/05 03:22:27;;;;;;;9.28;5.75;;;;;;;1.06;65.63;96868.34;1603002;87;21206;-90
2021/04/05 03:32:52;;;;;;;13.10;6.92;;;;;;;1.08;65.86;96861.34;1557948;89;21215;-89
2021/04/05 03:40:07;;;;;;;13.60;6.97;;;;;;;1.04;66.31;96865.44;1667212;82;21208;-91
2021/04/05 03:51:09;;;;;;;15.23;8.97;;;;;;;1.01;66.39;96859.08;1733049;79;21092;-85
2021/04/05 03:57:29;;;;;;;12.87;7.73;;;;;;;0.92;66.88;96858.59;1676331;82;21140;-90
2021/04/05 04:01:10;;;;;;;13.93;7.70;;;;;;;0.92;66.55;96858.59;1717394;80;21143;-91
2021/04/05 04:05:23;;;;;;;18.55;6.55;;;;;;;0.87;66.58;96846.30;1709715;80;21215;-91
2021/04/05 04:08:56;;;;;;;14.00;8.33;;;;;;;0.82;66.71;96846.94;1555746;88;21341;-91
2021/04/05 04:16:26;;;;;;;21.15;9.50;;;;;;;0.73;66.76;96860.33;1641267;83;21198;-89
2021/04/05 04:27:20;;;;;;;19.57;11.50;;;;;;;0.68;67.21;96859.23;1600439;86;21342;-89
2021/04/05 04:30:55;;;;;;;15.50;9.48;;;;;;;0.69;67.21;96860.09;1622197;86;21221;-90
2021/04/05 04:37:45;;;;;;;13.47;7.43;;;;;;;0.80;67.46;96857.84;1631951;85;21169;-89
2021/04/05 04:41:34;;;;;;;15.83;8.37;;;;;;;0.93;67.49;96852.93;1639213;85;21124;-90
2021/04/05 04:44:49;;;;;;;18.17;11.25;;;;;;;1.04;67.01;96853.77;1638704;85;21120;-89
2021/04/05 04:48:27;;;;;;;16.17;8.20;;;;;;;1.24;67.25;96864.08;1644557;83;21164;-91
2021/04/05 04:52:13;;;;;;;9.13;5.60;;;;;;;1.46;66.73;96860.45;1657910;83;21182;-89
2021/04/05 04:55:41;;;;;;;8.28;5.17;;;;;;;1.69;66.71;96851.55;1655436;83;21202;-90
2021/04/05 04:59:23;;;;;;;8.78;5.10;;;;;;;1.97;66.28;96849.38;1646415;83;21194;-91
2021/04/05 05:02:55;;;;;;;15.70;5.42;;;;;;;2.28;66.12;96845.20;1656067;83;21132;-91
2021/04/05 05:30:24;;;;;;;5.95;4.10;;;;;;;8.23;55.92;96833.89;1735023;81;21157;-90
2021/04/05 05:40:26;;;;;;;9.03;4.27;;;;;;;10.23;49.80;96836.70;1634502;84;21278;-90
2021/04/05 05:44:15;;;;;;;10.40;5.20;;;;;;;11.00;49.31;96841.72;1661437;84;21333;-92
2021/04/05 05:55:58;;;;;;;17.27;7.62;;;;;;;11.16;45.65;96834.64;1778916;79;21104;-90
2021/04/05 05:59:52;;;;;;;15.23;7.37;;;;;;;11.01;46.87;96832.84;1669547;82;21157;-85
2021/04/05 06:04:01;;;;;;;15.95;7.72;;;;;;;10.91;45.69;96838.09;1718252;81;21153;-88
2021/04/05 06:11:47;;;;;;;12.87;7.17;;;;;;;10.55;44.99;96835.81;1650763;83;21133;-89
2021/04/05 06:19:44;;;;;;;10.18;7.15;;;;;;;10.28;45.54;96827.09;1641621;86;21208;-92
2021/04/05 06:27:35;;;;;;;9.38;5.92;;;;;;;9.92;44.40;96827.36;1504057;91;21290;-85
2021/04/05 06:37:36;;;;;;;7.10;5.03;;;;;;;9.69;45.04;96817.39;1407670;102;21316;-89
2021/04/05 06:41:15;;;;;;;8.33;4.87;;;;;;;9.89;43.63;96818.39;1788937;80;27694;-92
2021/04/05 06:45:14;;;;;;;9.40;5.78;;;;;;;9.91;44.47;96817.79;1719666;83;21282;-92
2021/04/05 06:49:13;;;;;;;9.35;6.10;;;;;;;10.20;44.47;96818.50;1578918;88;21196;-89
2021/04/05 06:57:04;;;;;;;12.73;5.40;;;;;;;10.84;43.20;96833.00;1571048;87;21202;-91
2021/04/05 07:00:59;;;;;;;11.93;5.12;;;;;;;11.03;42.78;96841.47;1553081;90;22206;-85
2021/04/05 07:04:16;;;;;;;9.08;5.28;;;;;;;11.01;41.41;96831.53;1791834;80;26574;-88
2021/04/05 07:07:03;;;;;;;9.63;5.67;;;;;;;11.03;42.47;96832.23;1762662;81;21265;-87
2021/04/05 07:10:07;;;;;;;14.75;6.70;;;;;;;11.15;41.61;96822.42;1764482;81;21135;-93
2021/04/05 07:13:06;;;;;;;11.63;5.67;;;;;;;11.26;42.30;96822.33;1750880;82;21124;-90
2021/04/05 07:15:34;;;;;;;8.58;5.47;;;;;;;11.42;41.93;96823.14;1758665;81;21261;-87
2021/04/05 07:18:19;;;;;;;9.20;5.33;;;;;;;11.41;41.24;96817.01;1764411;81;21325;-89
2021/04/05 07:21:30;;;;;;;12.58;6.78;;;;;;;11.44;42.43;96815.92;1748620;81;21270;-86
2021/04/05 07:24:31;;;;;;;7.70;4.45;;;;;;;11.53;40.82;96814.26;1762157;81;21167;-92
2021/04/05 07:27:13;;;;;;;8.60;4.47;;;;;;;11.67;40.85;96803.80;1753187;81;21297;-90
2021/04/05 07:30:13;;;;;;;8.98;4.15;;;;;;;11.58;40.86;96794.05;1755230;81;21163;-81
2021/04/05 07:33:16;;;;;;;6.33;3.90;;;;;;;11.58;41.60;96790.09;1748924;82;21148;-83
2021/04/05 07:36:10;;;;;;;7.05;4.35;;;;;;;11.42;40.49;96791.47;1746954;81;21108;-92
2021/04/05 07:39:09;;;;;;;4.85;3.55;;;;;;;11.52;40.07;96781.77;1753648;81;21120;-78
2021/04/05 07:42:02;;;;;;;13.95;4.37;;;;;;;11.72;40.95;96786.57;1756568;80;21148;-88
2021/04/05 07:45:04;;;;;;;9.10;3.65;;;;;;;12.13;39.57;96783.81;1758285;80;21152;-90
2021/04/05 07:47:52;;;;;;;5.75;3.27;;;;;;;12.46;39.28;96780.84;1763704;80;21697;-90
2021/04/05 07:50:40;;;;;;;6.92;4.40;;;;;;;13.00;39.46;96781.08;1750451;80;21135;-91
2021/04/05 07:53:19;;;;;;;6.92;4.10;;;;;;;13.26;37.11;96785.20;1761790;80;21356;-93
2021/04/05 07:55:49;;;;;;;8.20;4.17;;;;;;;13.55;34.96;96776.76;1753627;80;21125;-92
2021/04/05 07:58:26;;;;;;;10.65;4.03;;;;;;;13.72;36.12;96775.94;1751057;82;21124;-92
2021/04/05 08:01:29;;;;;;;;;;;;;;;;;;;;;
2021/04/05 08:04:32;;;;;;;5.05;3.75;;;;;;;14.09;34.60;96765.32;1812340;79;24299;-91
2021/04/05 08:07:10;;;;;;;5.85;3.40;;;;;;;14.08;34.27;96763.66;1791469;78;21596;-93
2021/04/05 08:10:10;;;;;;;5.87;2.75;;;;;;;14.23;35.06;96760.81;1795949;80;21244;-87
2021/04/05 08:13:19;;;;;;;6.85;3.87;;;;;;;14.37;34.78;96762.06;1776720;80;21609;-87
2021/04/05 08:16:18;;;;;;;3.92;2.52;;;;;;;14.56;32.96;96766.31;1776767;80;21166;-89
2021/04/05 08:19:24;;;;;;;4.10;3.25;;;;;;;14.67;31.57;96757.28;1776551;80;21140;-88
2021/04/05 08:22:06;;;;;;;5.05;3.05;;;;;;;14.65;31.96;96753.44;1755795;80;21151;-90
2021/04/05 08:24:53;;;;;;;10.70;2.60;;;;;;;14.47;30.22;96748.69;1776579;80;21160;-90
2021/04/05 08:27:37;;;;;;;2.87;2.40;;;;;;;14.46;31.10;96750.53;1754918;81;21607;-89
2021/04/05 08:30:23;;;;;;;4.10;2.75;;;;;;;14.38;30.10;96743.84;1776690;80;21553;-89
2021/04/05 08:33:02;;;;;;;4.50;3.10;;;;;;;14.24;30.39;96738.63;1776469;80;21331;-90
2021/04/05 08:35:48;;;;;;;5.20;2.70;;;;;;;14.37;30.26;96731.58;1776807;80;21131;-88
2021/04/05 08:38:45;;;;;;;3.98;2.70;;;;;;;13.89;29.02;96734.55;1777002;80;21676;-88
2021/04/05 08:41:42;;;;;;;4.35;2.65;;;;;;;13.47;30.29;96724.55;1776719;80;21135;-87
2021/04/05 08:44:24;;;;;;;6.97;2.92;;;;;;;13.26;30.73;96716.39;1750334;81;21300;-90
2021/04/05 08:46:57;;;;;;;6.47;3.12;;;;;;;13.13;30.21;96711.43;1724213;82;21177;-88
2021/04/05 08:49:26;;;;;;;5.72;2.87;;;;;;;13.01;31.23;96717.08;1750062;82;21146;-89
2021/04/05 08:51:58;;;;;;;3.62;2.42;;;;;;;12.94;30.71;96704.95;1750437;82;21138;-90
2021/04/05 08:54:29;;;;;;;5.97;2.67;;;;;;;12.90;31.55;96712.83;1750135;81;21114;-91
2021/04/05 08:57:24;;;;;;;3.45;2.55;;;;;;;12.83;31.78;96708.61;1750501;81;21300;-89
2021/04/05 09:00:12;;;;;;;5.20;2.30;;;;;;;12.85;29.90;96701.88;1750584;81;21153;-90
2021/04/05 09:02:49;;;;;;;4.97;2.83;;;;;;;13.09;31.09;96694.68;1750190;82;21157;-89
2021/04/05 09:05:25;;;;;;;4.45;2.80;;;;;;;13.16;30.95;96699.74;1745391;81;21138;-89
2021/04/05 09:08:09;;;;;;;9.15;2.90;;;;;;;13.24;31.18;96704.27;1750105;82;21162;-90
2021/04/05 09:10:53;;;;;;;8.73;3.80;;;;;;;13.15;30.84;96690.14;1750129;81;21140;-90
2021/04/05 09:13:25;;;;;;;3.92;2.95;;;;;;;13.15;31.40;96694.10;1741699;82;21158;-90
2021/04/05 09:16:38;;;;;;;4.35;2.30;;;;;;;13.06;31.16;96697.14;1749086;81;21162;-90
2021/04/05 09:19:40;;;;;;;3.55;2.30;;;;;;;12.95;30.99;96689.41;1750515;81;21158;-89
2021/04/05 09:22:46;;;;;;;8.40;4.20;;;;;;;12.77;31.06;96692.84;1747512;82;21162;-89
2021/04/05 09:25:24;;;;;;;4.58;2.60;;;;;;;12.72;30.90;96692.46;1750701;81;21150;-86
2021/04/05 09:28:26;;;;;;;3.55;2.22;;;;;;;12.70;31.24;96692.27;1749792;81;21212;-81
2021/04/05 09:31:31;;;;;;;9.33;2.60;;;;;;;12.69;30.59;96679.52;1748438;81;21157;-90
2021/04/05 09:34:39;;;;;;;6.65;2.65;;;;;;;12.70;31.50;96679.05;1750414;82;21190;-85
2021/04/05 09:37:26;;;;;;;3.65;2.70;;;;;;;12.81;30.61;96679.67;1750395;82;21174;-89
2021/04/05 09:40:36;;;;;;;4.85;2.92;;;;;;;12.95;31.21;96667.77;1749788;82;21161;-85
2021/04/05 09:43:52;;;;;;;5.00;2.10;;;;;;;12.94;28.93;96662.63;1720141;81;21157;-87
2021/04/05 09:46:37;;;;;;;8.40;2.77;;;;;;;12.95;30.04;96661.63;1711708;84;21140;-89
2021/04/05 09:49:42;;;;;;;4.78;2.52;;;;;;;12.96;30.62;96651.39;1711992;84;21176;-90
2021/04/05 09:52:35;;;;;;;4.40;2.70;;;;;;;13.07;30.67;96641.10;1712021;83;21132;-89
2021/04/05 09:55:13;;;;;;;5.72;2.67;;;;;;;13.05;29.96;96639.09;1712192;84;21160;-85
2021/04/05 09:58:17;;;;;;;5.12;3.30;;;;;;;13.06;28.68;96631.50;1831093;77;24698;-87
2021/04/05 10:01:13;;;;;;;3.87;2.70;;;;;;;13.01;27.85;96635.06;1830129;78;21270;-85
2021/04/05 10:03:43;;;;;;;2.60;1.98;;;;;;;12.98;28.52;96632.23;1829971;78;21115;-87
2021/04/05 10:06:16;;;;;;;3.40;2.30;;;;;;;13.03;29.68;96632.64;1829442;78;21133;-89
2021/04/05 10:08:47;;;;;;;5.22;2.40;;;;;;;13.14;29.31;96631.58;1829655;78;21119;-89
2021/04/05 10:11:16;;;;;;;2.70;2.15;;;;;;;13.25;30.13;96627.86;1829654;78;21582;-87
2021/04/05 10:13:49;;;;;;;3.20;2.17;;;;;;;13.31;29.56;96623.78;1829534;78;21143;-89
2021/04/05 10:16:21;;;;;;;3.30;2.30;;;;;;;13.33;29.10;96627.11;1827724;78;21167;-86
2021/04/05 10:18:53;;;;;;;3.60;2.02;;;;;;;13.34;26.90;96620.84;1829605;78;21130;-88
2021/04/05 10:21:21;;;;;;;4.08;2.00;;;;;;;13.43;28.94;96610.69;1829808;78;21135;-86
2021/04/05 10:23:50;;;;;;;2.95;2.17;;;;;;;13.49;28.51;96609.25;1802182;78;21577;-90
2021/04/05 10:26:19;;;;;;;3.10;2.22;;;;;;;13.57;28.71;96611.45;1829407;78;21091;-86
2021/04/05 10:28:48;;;;;;;3.70;2.20;;;;;;;13.58;28.13;96606.50;1829722;78;21280;-88
2021/04/05 10:31:19;;;;;;;3.25;2.35;;;;;;;13.59;28.09;96614.78;1802453;78;21181;-86
2021/04/05 10:33:51;;;;;;;3.37;2.50;;;;;;;13.55;28.62;96607.30;1829473;78;21142;-88
2021/04/05 10:36:22;;;;;;;2.62;1.95;;;;;;;13.45;27.58;96603.44;1829559;78;21107;-89
2021/04/05 10:38:53;;;;;;;4.53;2.40;;;;;;;13.13;27.39;96600.30;1829784;78;21158;-84
2021/04/05 10:41:23;;;;;;;3.98;2.37;;;;;;;13.06;28.03;96600.56;1829884;77;21162;-89
2021/04/05 10:43:56;;;;;;;2.77;2.20;;;;;;;13.00;28.63;96595.04;1829940;78;21276;-87
2021/04/05 10:46:30;;;;;;;2.98;2.20;;;;;;;12.93;28.34;96597.48;1828663;78;21147;-88
2021/04/05 10:49:04;;;;;;;4.28;2.47;;;;;;;12.85;28.75;96586.31;1829915;78;21181;-88
2021/04/05 10:51:51;;;;;;;5.00;2.65;;;;;;;12.84;28.83;96577.22;1829420;78;21261;-87
2021/04/05 10:54:38;;;;;;;3.58;2.08;;;;;;;12.79;28.53;96574.52;1830142;78;21118;-87
2021/04/05 10:57:12;;;;;;;5.03;2.30;;;;;;;12.69;28.80;96568.47;1825542;78;21702;-87
2021/04/05 10:59:52;;;;;;;2.60;1.90;;;;;;;12.67;29.32;96563.81;1820923;79;21154;-87
2021/04/05 11:03:02;;;;;;;3.67;2.27;;;;;;;12.69;29.21;96561.04;1821582;78;21213;-88
2021/04/05 11:05:43;;;;;;;3.05;2.00;;;;;;;12.84;27.72;96548.95;1852723;77;24339;-87
2021/04/05 11:08:25;;;;;;;5.42;2.30;;;;;;;12.91;29.13;96542.06;1828525;78;21144;-88
2021/04/05 11:11:06;;;;;;;7.42;2.00;;;;;;;12.97;28.06;96548.56;1828703;78;21133;-86
2021/04/05 11:13:38;;;;;;;2.95;1.82;;;;;;;12.99;28.19;96539.17;1750955;82;21168;-84
2021/04/05 11:16:13;;;;;;;3.45;2.30;;;;;;;12.92;27.09;96529.18;1745370;82;21604;-89
2021/04/05 11:18:53;;;;;;;3.08;2.08;;;;;;;12.90;27.50;96539.58;1764939;81;21143;-88
2021/04/05 11:21:39;;;;;;;2.72;2.10;;;;;;;12.84;27.90;96536.23;1792420;80;21603;-89
2021/04/05 11:24:10;;;;;;;5.42;2.00;;;;;;;12.86;28.48;96518.37;1792984;80;21166;-84
2021/04/05 11:26:38;;;;;;;3.47;2.10;;;;;;;12.96;28.34;96527.06;1792588;80;21161;-87
2021/04/05 11:29:10;;;;;;;2.90;2.17;;;;;;;13.06;28.16;96519.88;1792138;80;21165;-89
2021/04/05 11:31:46;;;;;;;2.90;2.10;;;;;;;13.16;27.74;96522.45;1792463;80;21149;-87
2021/04/05 11:34:16;;;;;;;3.27;2.12;;;;;;;13.20;27.67;96515.03;1792192;80;21713;-89
2021/04/05 11:36:48;;;;;;;2.40;2.20;;;;;;;13.23;27.69;96505.44;1792100;80;21539;-85
2021/04/05 11:39:20;;;;;;;5.22;2.10;;;;;;;13.23;27.40;96506.29;1792334;80;21145;-87
2021/04/05 11:41:54;;;;;;;3.42;1.95;;;;;;;13.18;27.43;96494.00;1779732;80;21175;-88
2021/04/05 11:44:30;;;;;;;5.28;1.92;;;;;;;12.95;26.30;96489.69;1760739;81;21152;-87
2021/04/05 11:46:58;;;;;;;5.03;2.40;;;;;;;12.74;26.51;96487.36;1732677;81;21174;-88
2021/04/05 11:49:30;;;;;;;4.15;2.08;;;;;;;12.78;27.78;96490.88;1711998;81;21163;-90
2021/04/05 11:52:27;;;;;;;5.22;2.22;;;;;;;12.86;28.22;96478.70;1711539;84;21167;-91
2021/04/05 11:54:59;;;;;;;3.50;1.70;;;;;;;12.97;28.01;96485.08;1715469;81;21152;-92
2021/04/05 11:57:34;;;;;;;4.17;2.00;;;;;;;13.12;26.74;96472.98;1711104;84;21144;-91
2021/04/05 12:00:09;;;;;;;3.35;2.20;;;;;;;13.20;27.82;96480.13;1711290;84;21131;-88
2021/04/05 12:02:51;;;;;;;3.70;1.72;;;;;;;13.30;26.75;96469.93;1734475;81;21147;-90
2021/04/05 12:05:33;;;;;;;2.60;2.00;;;;;;;13.37;27.43;96457.25;1715655;82;21140;-85
2021/04/05 12:08:20;;;;;;;4.15;1.82;;;;;;;13.24;26.45;96459.47;1777309;80;21137;-92
2021/04/05 12:10:51;;;;;;;2.27;1.67;;;;;;;13.25;25.42;96458.48;1780156;79;21233;-93
2021/04/05 12:13:29;;;;;;;3.12;1.70;;;;;;;13.40;26.85;96463.59;1783934;79;21108;-90
2021/04/05 12:15:59;;;;;;;2.90;1.85;;;;;;;13.47;26.54;96456.34;1767106;79;21160;-87
2021/04/05 12:18:28;;;;;;;4.67;1.90;;;;;;;13.40;26.28;96459.63;1795739;79;21120;-85
2021/04/05 12:21:09;;;;;;;3.85;2.10;;;;;;;13.51;26.63;96457.20;1760833;81;21184;-88
2021/04/05 12:23:37;;;;;;;2.70;1.72;;;;;;;13.59;26.63;96445.83;1811345;79;21163;-93
2021/04/05 12:26:07;;;;;;;3.47;1.98;;;;;;;13.71;26.93;96445.86;1822340;79;21565;-88
2021/04/05 12:28:40;;;;;;;5.22;1.90;;;;;;;13.79;26.77;96446.88;1822343;78;21167;-89
2021/04/05 12:31:10;;;;;;;5.70;2.00;;;;;;;13.85;26.24;96443.10;1822789;78;21274;-87
2021/04/05 12:33:40;;;;;;;2.45;1.65;;;;;;;13.96;26.90;96436.70;1818874;79;21171;-78
2021/04/05 12:36:09;;;;;;;3.33;2.08;;;;;;;14.08;26.69;96432.41;1822142;79;21593;-88
2021/04/05 12:38:39;;;;;;;4.08;1.70;;;;;;;14.07;26.28;96418.34;1822275;78;21123;-88
2021/04/05 12:41:10;;;;;;;4.83;1.90;;;;;;;14.07;26.66;96414.37;1822116;78;21105;-86
2021/04/05 12:43:39;;;;;;;2.62;1.32;;;;;;;13.92;26.12;96404.07;1811860;79;21676;-85
2021/04/05 12:46:12;;;;;;;2.55;1.75;;;;;;;13.84;26.25;96400.38;1811086;79;21566;-84
2021/04/05 12:48:41;;;;;;;6.83;1.85;;;;;;;13.74;26.53;96390.41;1814079;79;21176;-89
2021/04/05 12:51:11;;;;;;;3.10;1.80;;;;;;;13.85;26.80;96387.98;1814200;79;21128;-87
2021/04/05 12:53:42;;;;;;;3.22;2.37;;;;;;;13.89;26.41;96384.85;1813990;79;21604;-87
2021/04/05 12:56:20;;;;;;;4.28;1.85;;;;;;;14.02;26.73;96382.21;1804454;79;21165;-90
2021/04/05 12:58:55;;;;;;;4.03;1.90;;;;;;;14.17;26.75;96381.08;1784644;79;21316;-90
2021/04/05 13:01:50;;;;;;;2.90;1.82;;;;;;;14.21;26.22;96369.98;1785360;79;21720;-79
2021/04/05 13:04:25;;;;;;;4.12;2.02;;;;;;;14.23;25.89;96370.33;1773636;79;21249;-88
2021/04/05 13:07:16;;;;;;;2.62;1.77;;;;;;;14.11;25.51;96364.02;1806434;79;21549;-91
2021/04/05 13:09:58;;;;;;;3.12;1.90;;;;;;;13.96;25.98;96367.82;1778951;79;21179;-90
2021/04/05 13:12:37;;;;;;;3.10;1.60;;;;;;;13.81;26.17;96350.40;1749906;81;21171;-81
2021/04/05 13:15:31;;;;;;;3.20;2.02;;;;;;;13.84;24.36;96343.94;1824313;77;24723;-86
2021/04/05 13:18:08;;;;;;;4.92;1.80;;;;;;;13.78;25.27;96345.92;1748443;81;21134;-88
2021/04/05 13:20:41;;;;;;;7.12;1.95;;;;;;;13.72;26.38;96348.21;1774267;80;21147;-85
2021/04/05 13:23:10;;;;;;;3.75;2.02;;;;;;;13.70;26.48;96348.05;1745710;81;21136;-92
2021/04/05 13:25:59;;;;;;;3.05;1.75;;;;;;;13.69;26.50;96346.38;1741218;81;21099;-92
2021/04/05 13:28:30;;;;;;;5.45;1.72;;;;;;;13.66;26.96;96333.45;1747586;81;21130;-89
2021/04/05 13:31:05;;;;;;;2.95;1.98;;;;;;;13.62;26.76;96321.03;1748099;81;21163;-84
2021/04/05 13:33:40;;;;;;;2.72;1.47;;;;;;;13.56;26.58;96315.07;1745826;81;21120;-87
2021/04/05 13:36:14;;;;;;;2.30;1.37;;;;;;;13.30;24.64;96314.63;1745604;82;21135;-92
2021/04/05 13:38:46;;;;;;;4.30;1.90;;;;;;;12.93;26.09;96311.81;1747447;81;21151;-86
2021/04/05 13:41:22;;;;;;;3.40;2.33;;;;;;;12.91;26.30;96312.45;1744323;82;21154;-88
2021/04/05 13:43:51;;;;;;;3.47;2.20;;;;;;;12.89;26.49;96313.95;1744108;82;21112;-90
2021/04/05 13:46:20;;;;;;;2.65;1.85;;;;;;;12.89;26.52;96310.45;1744158;82;21150;-91
2021/04/05 13:49:16;;;;;;;2.95;1.70;;;;;;;12.83;26.43;96303.16;1754236;81;21529;-91
2021/04/05 13:51:48;;;;;;;3.75;2.50;;;;;;;12.76;26.26;96304.27;1767549;80;21111;-88
2021/04/05 13:54:23;;;;;;;2.83;1.70;;;;;;;12.76;26.98;96301.12;1763918;81;21126;-90
2021/04/05 13:57:03;;;;;;;4.15;1.60;;;;;;;12.80;27.05;96302.48;1760599;81;21258;-89
2021/04/05 13:59:34;;;;;;;3.47;1.90;;;;;;;12.84;27.19;96296.89;1766054;81;21134;-88
2021/04/05 14:02:06;;;;;;;7.67;2.20;;;;;;;12.82;27.18;96300.98;1782751;80;21164;-88
2021/04/05 14:04:51;;;;;;;2.90;1.70;;;;;;;12.84;27.31;96299.02;1762439;80;21168;-90
2021/04/05 14:07:21;;;;;;;2.40;1.77;;;;;;;12.87;27.11;96293.91;1762016;81;21108;-90
2021/04/05 14:09:53;;;;;;;2.83;1.65;;;;;;;12.79;27.39;96293.39;1785293;80;21120;-90
2021/04/05 14:12:23;;;;;;;4.67;2.55;;;;;;;12.80;27.60;96287.12;1764260;81;21144;-85
2021/04/05 14:14:55;;;;;;;5.33;2.00;;;;;;;12.76;27.09;96287.89;1742620;81;21206;-90
2021/04/05 14:17:39;;;;;;;3.72;1.80;;;;;;;12.73;27.55;96275.02;1740593;82;21159;-89
2021/04/05 14:20:15;;;;;;;4.87;1.77;;;;;;;12.70;27.43;96271.34;1761874;81;21297;-91
2021/04/05 14:22:57;;;;;;;5.17;2.10;;;;;;;12.67;27.40;96276.94;1770629;81;21183;-85
2021/04/05 14:25:31;;;;;;;3.15;1.67;;;;;;;12.64;27.54;96279.91;1770808;81;21142;-90
2021/04/05 14:28:41;;;;;;;4.60;2.00;;;;;;;12.66;28.02;96272.66;1748999;82;21179;-90
2021/04/05 14:31:50;;;;;;;3.55;1.80;;;;;;;12.68;27.84;96272.50;1757787;80;21113;-87
2021/04/05 14:34:23;;;;;;;2.72;1.98;;;;;;;12.68;27.89;96264.56;1788503;79;21136;-89
2021/04/05 14:36:59;;;;;;;7.30;1.90;;;;;;;12.67;27.80;96256.30;1819785;79;21262;-90
2021/04/05 14:39:32;;;;;;;2.40;1.72;;;;;;;12.65;28.04;96257.78;1819867;79;21108;-89
2021/04/05 14:42:14;;;;;;;2.22;2.02;;;;;;;12.64;28.30;96260.90;1819417;79;21152;-87
2021/04/05 14:45:05;;;;;;;2.60;1.70;;;;;;;12.64;28.05;96251.65;1820144;79;21125;-89
2021/04/05 14:47:37;;;;;;;7.72;2.25;;;;;;;12.62;28.41;96252.80;1815529;79;22210;-87
2021/04/05 14:50:10;;;;;;;2.90;1.87;;;;;;;12.55;27.69;96255.23;1819609;79;21092;-88
2021/04/05 14:52:51;;;;;;;5.30;2.00;;;;;;;12.47;27.67;96256.50;1819129;79;21115;-91
2021/04/05 14:55:29;;;;;;;3.98;2.60;;;;;;;12.37;27.93;96250.49;1819437;79;21107;-90
2021/04/05 14:57:58;;;;;;;3.08;2.00;;;;;;;12.33;28.33;96253.94;1819865;78;21093;-89
2021/04/05 15:00:33;;;;;;;9.30;2.52;;;;;;;12.31;28.36;96251.94;1778697;79;21156;-87
2021/04/05 15:03:11;;;;;;;5.80;2.05;;;;;;;12.32;28.69;96245.20;1820034;79;21117;-86
2021/04/05 15:05:48;;;;;;;3.45;1.60;;;;;;;12.32;28.74;96245.67;1819776;79;21147;-88
2021/04/05 15:08:20;;;;;;;2.45;1.85;;;;;;;12.31;28.56;96242.69;1815717;79;21533;-90
2021/04/05 15:10:54;;;;;;;4.62;2.10;;;;;;;12.25;28.47;96238.03;1799033;79;21216;-85
2021/04/05 15:13:27;;;;;;;5.47;1.65;;;;;;;12.16;27.24;96234.02;1815012;79;21154;-89
2021/04/05 15:15:58;;;;;;;14.47;3.50;;;;;;;12.13;28.38;96231.67;1820069;79;21581;-85
2021/04/05 15:18:28;;;;;;;14.47;3.45;;;;;;;12.11;28.68;96233.63;1819555;78;21124;-88
2021/04/05 15:20:58;;;;;;;3.40;1.65;;;;;;;12.07;28.75;96233.62;1818963;79;21572;-81
2021/04/05 15:23:31;;;;;;;2.77;1.85;;;;;;;12.01;28.53;96226.32;1819743;79;21127;-86
2021/04/05 15:26:03;;;;;;;3.55;2.10;;;;;;;11.91;28.06;96223.72;1812502;78;21105;-87
2021/04/05 15:28:37;;;;;;;3.15;2.02;;;;;;;11.90;28.40;96222.56;1804977;79;21114;-82
2021/04/05 15:31:08;;;;;;;5.20;2.05;;;;;;;11.86;28.83;96220.22;1793973;79;21108;-88
2021/04/05 15:33:40;;;;;;;3.52;2.42;;;;;;;11.85;28.82;96215.91;1820072;78;21168;-88
2021/04/05 15:36:08;;;;;;;8.33;5.37;;;;;;;11.78;28.89;96220.16;1810232;79;21119;-80
2021/04/05 15:38:39;;;;;;;8.35;3.42;;;;;;;11.72;29.15;96219.45;1802602;78;21589;-82
2021/04/05 15:41:11;;;;;;;7.28;4.72;;;;;;;11.66;29.43;96226.16;1744471;82;21202;-84
2021/04/05 15:43:44;;;;;;;3.83;2.30;;;;;;;11.63;29.51;96218.54;1770598;81;21597;-83
2021/04/05 15:46:50;;;;;;;2.45;2.00;;;;;;;11.56;29.38;96218.30;1749416;82;21585;-87
2021/04/05 15:49:23;;;;;;;3.30;2.47;;;;;;;11.50;29.66;96220.23;1757086;82;21135;-81
2021/04/05 15:52:07;;;;;;;5.75;2.30;;;;;;;11.42;29.93;96224.12;1744923;81;21126;-81
2021/04/05 15:54:46;;;;;;;6.78;2.17;;;;;;;11.34;30.03;96221.41;1763373;80;21107;-81
2021/04/05 15:57:27;;;;;;;4.08;2.45;;;;;;;11.24;30.10;96219.66;1790019;78;21180;-79
2021/04/05 16:00:35;;;;;;;5.65;2.37;;;;;;;11.17;30.28;96219.08;1788979;78;21149;-81
2021/04/05 16:03:22;;;;;;;4.53;2.77;;;;;;;11.02;30.44;96225.34;1771587;80;21156;-79
2021/04/05 16:06:04;;;;;;;5.05;2.50;;;;;;;10.83;30.84;96224.45;1783637;80;21599;-84
2021/04/05 16:08:39;;;;;;;4.87;2.33;;;;;;;10.74;30.94;96227.50;1757522;80;21267;-87
2021/04/05 16:11:22;;;;;;;8.03;3.40;;;;;;;10.66;31.20;96223.91;1789674;79;21709;-84
2021/04/05 16:14:03;;;;;;;6.33;2.85;;;;;;;10.57;31.53;96229.59;1788455;80;21151;-82
2021/04/05 16:16:35;;;;;;;8.05;2.75;;;;;;;10.45;31.55;96225.80;1765150;80;21135;-82